• Join FlightAware (Why Join?)
  • Login
  • US Flag 
01:29AM EDT


 

Airport Tracker/Info


-or-


 

Live Flight TrackerFlight Track Log ✈ FLG4222 ✈ 01-Oct-2013 ✈ KDTW - KBGM

Flight Track Log - Related Links

Times and Time Zones

All times are in EDT time to prevent confusion due to time zone crossing. See the FLG4222 flight status page for this flight to view local times or setup timezone preferences in your user account.

Time Position Orientation Groundspeed Altitude Reporting Facility
EDT Latitude Longitude Course Direction KTS MPH feet Rate Location/Type
10:04AM 42.2239 -83.3528 30° Northeast 152 175 1,300  Level Cleveland Center
10:05AM 42.2486 -83.3336 30° Northeast 197 227 2,300 1,620 Climbing Cleveland Center
10:06AM 42.2750 -83.3075 36° Northeast 221 254 3,500 2,220 Climbing Cleveland Center
10:06AM 42.3025 -83.2847 31° Northeast 254 292 4,600 2,760 Climbing Cleveland Center
10:07AM 42.3450 -83.2494 32° Northeast 257 296 6,400 2,760 Climbing Cleveland Center
10:07AM 42.3619 -83.2197 52° Northeast 291 335 7,400 3,000 Climbing Cleveland Center
10:08AM 42.3711 -83.1389 81° East 295 339 9,500 1,680 Climbing Cleveland Center
10:09AM 42.3706 -83.0144 90° East 321 369 10,500 960 Climbing Cleveland Center
10:10AM 42.3697 -82.8692 90° East 374 430 11,500 960 Climbing Cleveland Center
10:11AM 42.3683 -82.7158 91° East 400 460 12,500 1,020 Climbing Cleveland Center
10:12AM 42.3678 -82.5550 90° East 419 482 13,700 1,200 Climbing Cleveland Center
10:13AM 42.3639 -82.3639 92° East 425 489 15,100 1,140 Climbing Cleveland Center
10:14AM 42.3575 -82.2025 93° East 430 495 16,100 960 Climbing Cleveland Center
10:15AM 42.3503 -82.0383 93° East 434 499 17,200 960 Climbing Cleveland Center
10:16AM 42.3433 -81.8719 93° East 438 504 18,100 900 Climbing Cleveland Center
10:17AM 42.3358 -81.7056 93° East 439 505 19,100 960 Climbing Cleveland Center
10:18AM 42.3283 -81.5378 93° East 441 507 20,100 900 Climbing Cleveland Center
10:19AM 42.3208 -81.3692 93° East 443 510 21,000 840 Climbing Cleveland Center
10:20AM 42.3106 -81.1697 94° East 450 518 21,900 840 Climbing Cleveland Center
10:21AM 42.3008 -80.9986 94° East 452 520 22,800 480 Climbing Cleveland Center
10:22AM 42.2931 -80.8244 93° East 457 526 23,000 60 Climbing Cleveland Center
10:23AM 42.2828 -80.6464 94° East 467 537 23,000  Level Cleveland Center
10:24AM 42.2736 -80.4639 94° East 479 551 23,000  Level Cleveland Center
10:25AM 42.2625 -80.2797 95° East 487 560 23,000  Level Cleveland Center
10:26AM 42.2514 -80.0947 95° East 490 564 23,000  Level Cleveland Center
10:27AM 42.2381 -79.8814 95° East 491 565 23,000  Level Cleveland Center
10:29AM 42.2272 -79.6975 94° East 493 567 23,000  Level Cleveland Center
10:30AM 42.2139 -79.5167 96° East 489 563 23,000  Level Cleveland Center
10:31AM 42.2025 -79.3333 95° East 491 565 23,000  Level Cleveland Center
10:32AM 42.1906 -79.1503 95° East 492 566 23,000  Level Cleveland Center
10:33AM 42.1919 -78.9314 89° East 488 562 23,000  Level Cleveland Center
10:34AM 42.1953 -78.7492 89° East 487 560 23,000  Level Cleveland Center
10:35AM 42.1975 -78.5675 89° East 487 560 23,000  Level Cleveland Center
10:36AM 42.2008 -78.3850 89° East 489 563 23,000  Level Cleveland Center
10:37AM 42.2031 -78.2008 89° East 492 566 23,000  Level Cleveland Center
10:38AM 42.2050 -78.0231 89° East 479 551 23,000  Level Cleveland Center
10:39AM 42.2081 -77.8064 89° East 481 554 23,000 -480 Level Cleveland Center
10:40AM 42.2058 -77.6181 91° East 497 572 22,100 -1,320 Descending Cleveland Center
10:41AM 42.2078 -77.4447 89° East 464 534 20,300 -1,920 Descending Cleveland Center
10:42AM 42.2094 -77.2783 89° East 448 516 18,200 -1,800 Descending Cleveland Center
10:43AM 42.2092 -77.0906 90° East 437 503 16,600 -1,800 Descending Cleveland Center
10:44AM 42.2100 -76.9358 90° East 416 479 14,500 -2,040 Descending Cleveland Center
10:45AM 42.2086 -76.7883 91° East 398 458 12,500 -1,800 Descending Cleveland Center
10:46AM 42.2053 -76.6475 92° East 384 442 10,900 -1,500 Descending Cleveland Center
10:47AM 42.2050 -76.5364 90° East 322 371 9,500 -1,620 Descending Cleveland Center
10:48AM 42.2039 -76.4303 91° East 292 336 7,600 -1,980 Descending Cleveland Center
10:49AM 42.1989 -76.3003 93° East 290 334 5,500 -1,740 Descending Cleveland Center
10:50AM 42.1928 -76.2008 95° East 275 316 4,000 -720 Descending New York Center
10:51AM 42.1775 -76.1211 104° East 245 282 4,000  Level New York Center
10:52AM 42.1386 -76.0592 130° Southeast 215 247 4,000  Level New York Center
10:53AM 42.1142 -76.0014 120° Southeast 201 231 4,000 -420 Level New York Center
10:54AM 42.1372 -75.9500 59° Northeast 149 171 3,200 -900 Descending New York Center
10:55AM 42.1728 -75.9500 360° North 99 114 2,300 -600 Descending New York Center
10:56AM 42.2033 -75.9636 342° North 99 114 2,000 -300 Descending New York Center